Nippon Maru II — JFMC — position and weather

sailwx.info

Track history (hours):
 
Tides and Currents Weather Stations Pressure Air Temp Water Temp Dewpoint Dewpoint Depression Visibility Wind Speed Wind Dir Waves Ship Positions

Nippon Maru II (Japan)

Build in 1984. Trains merchant marine cadets for Japan's National Institute for Sea Training.

Ship's website: http://www.kohkun.go.jp/en/ships/index.html

Last reported at 2018-Oct-03 08:26 UTC. Time now 2018-Dec-10 23:47 UTC.
Position N 35°08' E 139°47'.
Warning: this ship's position is months out of date.

Length 110.1 m; beam 13.8 m; draft 110.09 m.

Type: Other ship. MMSI: 431498000.

Date/timePositionNaut miles runAvg speedWind from/ knotsBaromVisibWave heightAir tempDewpointWater temp
2018-Oct-03 08:26N 35°08' E 139°47'510.9
2018-Oct-03 07:59N 35°13' E 139°46'510.9
2018-Oct-03 07:30N 35°18' E 139°44'510.6
2018-Oct-03 07:04N 35°23' E 139°42'111.0
2018-Oct-03 07:01N 35°23' E 139°43'510.9
2018-Oct-03 06:30N 35°27' E 139°47'510.9
2018-Oct-03 06:04N 35°30' E 139°52'111.0
2018-Oct-03 06:00N 35°31' E 139°52'510.4
2018-Oct-03 05:30N 35°35' E 139°48'  
2018-Oct-01 01:08N 35°39' E 139°47'0 0.2
2018-Oct-01 00:54N 35°39' E 139°47'1 3.1
2018-Oct-01 00:30N 35°38' E 139°46'4 9.2
2018-Oct-01 00:02N 35°34' E 139°48'0 9.8
2018-Oct-01 00:00N 35°34' E 139°49'4 6.6
2018-Sep-30 23:22N 35°31' E 139°53'2 7.6
2018-Sep-30 23:03N 35°29' E 139°52'0 8.0
2018-Sep-30 22:59N 35°29' E 139°51'4 8.7
2018-Sep-30 22:30N 35°26' E 139°47'3 6.5
2018-Sep-30 22:03N 35°28' E 139°50'0 7.0
2018-Sep-30 21:59N 35°28' E 139°50'3 6.3
2018-Sep-30 21:31N 35°27' E 139°47'4 7.6
2018-Sep-30 21:03N 35°29' E 139°50'0 6.3
2018-Sep-30 20:59N 35°29' E 139°51'4 7.4
2018-Sep-30 20:30N 35°26' E 139°49'1 3.0
2018-Sep-30 20:03N 35°27' E 139°48'0 6.4
2018-Sep-30 20:00N 35°27' E 139°48'4 7.3
2018-Sep-30 19:30N 35°30' E 139°51'3 5.4
2018-Sep-30 18:59N 35°32' E 139°52'2 3.7
2018-Sep-30 18:30N 35°31' E 139°53'3 5.4
2018-Sep-30 18:01N 35°31' E 139°50'0 3.1
2018-Sep-30 17:59N 35°31' E 139°50'1 1.4
2018-Sep-30 17:30N 35°31' E 139°49'1 2.6
2018-Sep-30 17:03N 35°29' E 139°49'0 5.8
2018-Sep-30 17:00N 35°29' E 139°49'2 3.0
2018-Sep-30 16:30N 35°28' E 139°50'1 2.0
2018-Sep-30 16:03N 35°28' E 139°50'0 2.6
2018-Sep-30 16:00N 35°28' E 139°49'2 3.3
2018-Sep-30 15:30N 35°28' E 139°47'1 2.0
2018-Sep-30 15:03N 35°27' E 139°46'0 2.6
2018-Sep-30 15:00N 35°27' E 139°47'5 5.3
2018-Sep-30 14:03N 35°22' E 139°45'111.2
2018-Sep-30 13:59N 35°22' E 139°45'5 9.9
2018-Sep-30 13:30N 35°17' E 139°46'510.8
2018-Sep-30 13:01N 35°12' E 139°47'011.6
2018-Sep-30 12:59N 35°12' E 139°47'1 0.8
2018-Sep-30 11:32N 35°11' E 139°46'0 7.3
2018-Sep-30 11:30N 35°11' E 139°46'4 7.5
2018-Sep-30 10:56N 35°07' E 139°47'1 2.6
2018-Sep-30 10:28N 35°08' E 139°46'3 8.0
2018-Sep-30 10:02N 35°11' E 139°46'0 7.6
2018-Sep-30 10:00N 35°11' E 139°46'7 8.0
2018-Sep-30 09:06N 35°18' E 139°44'110.1
2018-Sep-30 09:03N 35°19' E 139°43'0 9.5
2018-Sep-30 09:00N 35°19' E 139°43'5 9.6
2018-Sep-30 08:30N 35°24' E 139°43'4 9.7
2018-Sep-30 08:03N 35°27' E 139°47'0 9.5
2018-Sep-30 08:00N 35°27' E 139°47'5 9.2
2018-Sep-30 07:30N 35°31' E 139°51'1 1.8
2018-Sep-30 07:01N 35°31' E 139°51'0 0.0
2018-Sep-30 06:49N 35°31' E 139°51'0 0.0
2018-Sep-30 06:28N 35°31' E 139°51'0 0.0
2018-Sep-30 06:01N 35°31' E 139°51'0 0.0
2018-Sep-30 05:58N 35°31' E 139°51'0 0.0
2018-Sep-30 05:28N 35°31' E 139°51'0 0.0
2018-Sep-30 05:01N 35°31' E 139°51'0 0.0
2018-Sep-30 04:58N 35°31' E 139°51'0 0.0
2018-Sep-30 01:31N 35°31' E 139°51'0 0.4
2018-Sep-30 01:23N 35°31' E 139°51'2 5.1
2018-Sep-30 01:03N 35°33' E 139°50'011.1
2018-Sep-30 01:00N 35°33' E 139°50'610.5
2018-Sep-30 00:27N 35°38' E 139°46'  
Track history (hours):
 
Tides and Currents Weather Stations Pressure Air Temp Water Temp Dewpoint Dewpoint Depression Visibility Wind Speed Wind Dir Waves Ship Positions

Nippon Maru II (Japan)

Build in 1984. Trains merchant marine cadets for Japan's National Institute for Sea Training.

Ship's website: http://www.kohkun.go.jp/en/ships/index.html

Last reported at 2018-Oct-03 08:26 UTC. Time now 2018-Dec-10 23:47 UTC.
Position N 35°08' E 139°47'.
Warning: this ship's position is months out of date.

Length 110.1 m; beam 13.8 m; draft 110.09 m.

Type: Other ship. MMSI: 431498000.

Date/timePositionNaut miles runAvg speedWind from/ knotsBaromVisibWave heightAir tempDewpointWater temp
2018-Oct-03 08:26N 35°08' E 139°47'510.9
2018-Oct-03 07:59N 35°13' E 139°46'510.9
2018-Oct-03 07:30N 35°18' E 139°44'510.6
2018-Oct-03 07:04N 35°23' E 139°42'111.0
2018-Oct-03 07:01N 35°23' E 139°43'510.9
2018-Oct-03 06:30N 35°27' E 139°47'510.9
2018-Oct-03 06:04N 35°30' E 139°52'111.0
2018-Oct-03 06:00N 35°31' E 139°52'510.4
2018-Oct-03 05:30N 35°35' E 139°48'  
2018-Oct-01 01:08N 35°39' E 139°47'0 0.2
2018-Oct-01 00:54N 35°39' E 139°47'1 3.1
2018-Oct-01 00:30N 35°38' E 139°46'4 9.2
2018-Oct-01 00:02N 35°34' E 139°48'0 9.8
2018-Oct-01 00:00N 35°34' E 139°49'4 6.6
2018-Sep-30 23:22N 35°31' E 139°53'2 7.6
2018-Sep-30 23:03N 35°29' E 139°52'0 8.0
2018-Sep-30 22:59N 35°29' E 139°51'4 8.7
2018-Sep-30 22:30N 35°26' E 139°47'3 6.5
2018-Sep-30 22:03N 35°28' E 139°50'0 7.0
2018-Sep-30 21:59N 35°28' E 139°50'3 6.3
2018-Sep-30 21:31N 35°27' E 139°47'4 7.6
2018-Sep-30 21:03N 35°29' E 139°50'0 6.3
2018-Sep-30 20:59N 35°29' E 139°51'4 7.4
2018-Sep-30 20:30N 35°26' E 139°49'1 3.0
2018-Sep-30 20:03N 35°27' E 139°48'0 6.4
2018-Sep-30 20:00N 35°27' E 139°48'4 7.3
2018-Sep-30 19:30N 35°30' E 139°51'3 5.4
2018-Sep-30 18:59N 35°32' E 139°52'2 3.7
2018-Sep-30 18:30N 35°31' E 139°53'3 5.4
2018-Sep-30 18:01N 35°31' E 139°50'0 3.1
2018-Sep-30 17:59N 35°31' E 139°50'1 1.4
2018-Sep-30 17:30N 35°31' E 139°49'1 2.6
2018-Sep-30 17:03N 35°29' E 139°49'0 5.8
2018-Sep-30 17:00N 35°29' E 139°49'2 3.0
2018-Sep-30 16:30N 35°28' E 139°50'1 2.0
2018-Sep-30 16:03N 35°28' E 139°50'0 2.6
2018-Sep-30 16:00N 35°28' E 139°49'2 3.3
2018-Sep-30 15:30N 35°28' E 139°47'1 2.0
2018-Sep-30 15:03N 35°27' E 139°46'0 2.6
2018-Sep-30 15:00N 35°27' E 139°47'5 5.3
2018-Sep-30 14:03N 35°22' E 139°45'111.2
2018-Sep-30 13:59N 35°22' E 139°45'5 9.9
2018-Sep-30 13:30N 35°17' E 139°46'510.8
2018-Sep-30 13:01N 35°12' E 139°47'011.6
2018-Sep-30 12:59N 35°12' E 139°47'1 0.8
2018-Sep-30 11:32N 35°11' E 139°46'0 7.3
2018-Sep-30 11:30N 35°11' E 139°46'4 7.5
2018-Sep-30 10:56N 35°07' E 139°47'1 2.6
2018-Sep-30 10:28N 35°08' E 139°46'3 8.0
2018-Sep-30 10:02N 35°11' E 139°46'0 7.6
2018-Sep-30 10:00N 35°11' E 139°46'7 8.0
2018-Sep-30 09:06N 35°18' E 139°44'110.1
2018-Sep-30 09:03N 35°19' E 139°43'0 9.5
2018-Sep-30 09:00N 35°19' E 139°43'5 9.6
2018-Sep-30 08:30N 35°24' E 139°43'4 9.7
2018-Sep-30 08:03N 35°27' E 139°47'0 9.5
2018-Sep-30 08:00N 35°27' E 139°47'5 9.2
2018-Sep-30 07:30N 35°31' E 139°51'1 1.8
2018-Sep-30 07:01N 35°31' E 139°51'0 0.0
2018-Sep-30 06:49N 35°31' E 139°51'0 0.0
2018-Sep-30 06:28N 35°31' E 139°51'0 0.0
2018-Sep-30 06:01N 35°31' E 139°51'0 0.0
2018-Sep-30 05:58N 35°31' E 139°51'0 0.0
2018-Sep-30 05:28N 35°31' E 139°51'0 0.0
2018-Sep-30 05:01N 35°31' E 139°51'0 0.0
2018-Sep-30 04:58N 35°31' E 139°51'0 0.0
2018-Sep-30 01:31N 35°31' E 139°51'0 0.4
2018-Sep-30 01:23N 35°31' E 139°51'2 5.1
2018-Sep-30 01:03N 35°33' E 139°50'011.1
2018-Sep-30 01:00N 35°33' E 139°50'610.5
2018-Sep-30 00:27N 35°38' E 139°46'  

Dump ship's entire track history